Map

Track Data

SID SEASON NUMBER BASIN SUBBASIN NAME ISO_TIME NATURE LAT LON WMO_WIND WMO_PRES WMO_AGENCY TRACK_TYPE DIST2LAND LANDFALL IFLAG USA_AGENCY USA_ATCF_ID USA_LAT USA_LON USA_RECORD USA_STATUS USA_WIND USA_PRES USA_SSHS USA_R34_NE USA_R34_SE USA_R34_SW USA_R34_NW USA_R50_NE USA_R50_SE USA_R50_SW USA_R50_NW USA_R64_NE USA_R64_SE USA_R64_SW USA_R64_NW USA_POCI USA_ROCI USA_RMW USA_EYE TOKYO_LAT TOKYO_LON TOKYO_GRADE TOKYO_WIND TOKYO_PRES TOKYO_R50_DIR TOKYO_R50_LONG TOKYO_R50_SHORT TOKYO_R30_DIR TOKYO_R30_LONG TOKYO_R30_SHORT TOKYO_LAND CMA_LAT CMA_LON CMA_CAT CMA_WIND CMA_PRES HKO_LAT HKO_LON HKO_CAT HKO_WIND HKO_PRES NEWDELHI_LAT NEWDELHI_LON NEWDELHI_GRADE NEWDELHI_WIND NEWDELHI_PRES NEWDELHI_CI NEWDELHI_DP NEWDELHI_POCI REUNION_LAT REUNION_LON REUNION_TYPE REUNION_WIND REUNION_PRES REUNION_TNUM REUNION_CI REUNION_RMW REUNION_R34_NE REUNION_R34_SE REUNION_R34_SW REUNION_R34_NW REUNION_R50_NE REUNION_R50_SE REUNION_R50_SW REUNION_R50_NW REUNION_R64_NE REUNION_R64_SE REUNION_R64_SW REUNION_R64_NW BOM_LAT BOM_LON BOM_TYPE BOM_WIND BOM_PRES BOM_TNUM BOM_CI BOM_RMW BOM_R34_NE BOM_R34_SE BOM_R34_SW BOM_R34_NW BOM_R50_NE BOM_R50_SE BOM_R50_SW BOM_R50_NW BOM_R64_NE BOM_R64_SE BOM_R64_SW BOM_R64_NW BOM_ROCI BOM_POCI BOM_EYE BOM_POS_METHOD BOM_PRES_METHOD NADI_LAT NADI_LON NADI_CAT NADI_WIND NADI_PRES WELLINGTON_LAT WELLINGTON_LON WELLINGTON_WIND WELLINGTON_PRES DS824_LAT DS824_LON DS824_STAGE DS824_WIND DS824_PRES TD9636_LAT TD9636_LON TD9636_STAGE TD9636_WIND TD9636_PRES TD9635_LAT TD9635_LON TD9635_WIND TD9635_PRES TD9635_ROCI NEUMANN_LAT NEUMANN_LON NEUMANN_CLASS NEUMANN_WIND NEUMANN_PRES MLC_LAT MLC_LON MLC_CLASS MLC_WIND MLC_PRES USA_GUST BOM_GUST BOM_GUST_PER REUNION_GUST REUNION_GUST_PER USA_SEAHGT USA_SEARAD_NE USA_SEARAD_SE USA_SEARAD_SW USA_SEARAD_NW STORM_SPEED STORM_DIR
1944092S11057 1944 27 SI MM NOT_NAMED 1944-04-01 06:00:00 NR -10.5000 56.8000 reunion main 802 757 _____O________ -1 -10.5000 56.8000 99 9.90000 8 255
1944092S11057 1944 27 SI MM NOT_NAMED 1944-04-01 09:00:00 NR -10.5969 56.4202 main 757 722 _____P________ -1 -10.5969 56.4202 99 8 255
1944092S11057 1944 27 SI MM NOT_NAMED 1944-04-01 12:00:00 NR -10.6939 56.0395 main 712 677 _____P________ -1 -10.6939 56.0395 99 8 255
1944092S11057 1944 27 SI MM NOT_NAMED 1944-04-01 15:00:00 NR -10.7913 55.6572 main 677 633 _____P________ -1 -10.7913 55.6572 99 8 255
1944092S11057 1944 27 SI MM NOT_NAMED 1944-04-01 18:00:00 NR -10.8896 55.2727 main 633 588 _____P________ -1 -10.8896 55.2727 99 8 255
1944092S11057 1944 27 SI MM NOT_NAMED 1944-04-01 21:00:00 NR -10.9891 54.8854 main 588 543 _____P________ -1 -10.9891 54.8854 99 8 255
1944092S11057 1944 27 SI MM NOT_NAMED 1944-04-02 00:00:00 NR -11.0905 54.4946 main 543 499 _____P________ -1 -11.0905 54.4946 99 8 255
1944092S11057 1944 27 SI MM NOT_NAMED 1944-04-02 03:00:00 NR -11.1939 54.0997 main 499 455 _____P________ -1 -11.1939 54.0997 99 8 255
1944092S11057 1944 27 SI MM NOT_NAMED 1944-04-02 06:00:00 NR -11.3000 53.7000 reunion main 455 410 _____O________ -1 -11.3000 53.7000 99 9.90000 8 255
1944092S11057 1944 27 SI MM NOT_NAMED 1944-04-02 09:00:00 NR -11.4097 53.2944 main 410 366 _____P________ -1 -11.4097 53.2944 99 8 254
1944092S11057 1944 27 SI MM NOT_NAMED 1944-04-02 12:00:00 NR -11.5264 52.8798 main 366 323 _____P________ -1 -11.5264 52.8798 99 9 253
1944092S11057 1944 27 SI MM NOT_NAMED 1944-04-02 15:00:00 NR -11.6542 52.4527 main 317 264 _____P________ -1 -11.6542 52.4527 99 9 252
1944092S11057 1944 27 SI MM NOT_NAMED 1944-04-02 18:00:00 NR -11.7972 52.0094 main 264 222 _____P________ -1 -11.7972 52.0094 99 9 251
1944092S11057 1944 27 SI MM NOT_NAMED 1944-04-02 21:00:00 NR -11.9592 51.5463 main 206 164 _____P________ -1 -11.9592 51.5463 99 10 249
1944092S11057 1944 27 SI MM NOT_NAMED 1944-04-03 00:00:00 NR -12.1444 51.0597 main 164 109 _____P________ -1 -12.1444 51.0597 99 11 248
1944092S11057 1944 27 SI MM NOT_NAMED 1944-04-03 03:00:00 NR -12.3567 50.5456 main 93 39 _____P________ -1 -12.3567 50.5456 99 11 246
1944092S11057 1944 27 SI MM NOT_NAMED 1944-04-03 06:00:00 NR -12.6000 50.0000 reunion main 39 0 _____O________ -1 -12.6000 50.0000 99 9.90000 13 245
1944092S11057 1944 27 SI MM NOT_NAMED 1944-04-03 09:00:00 NR -12.9096 49.3412 main 0 0 _____P________ -1 -12.9096 49.3412 99 15 244
1944092S11057 1944 27 SI MM NOT_NAMED 1944-04-03 12:00:00 NR -13.2540 48.6389 main 21 0 _____P________ -1 -13.2540 48.6389 99 16 243
1944092S11057 1944 27 SI MM NOT_NAMED 1944-04-03 15:00:00 NR -13.6215 47.9139 main 10 10 _____P________ -1 -13.6215 47.9139 99 16 242
1944092S11057 1944 27 SI MM NOT_NAMED 1944-04-03 18:00:00 NR -14.0003 47.1875 main 70 70 _____P________ -1 -14.0003 47.1875 99 16 241
1944092S11057 1944 27 SI MM NOT_NAMED 1944-04-03 21:00:00 NR -14.3787 46.4810 main 102 101 _____P________ -1 -14.3787 46.4810 99 15 241
1944092S11057 1944 27 SI MM NOT_NAMED 1944-04-04 00:00:00 NR -14.7454 45.8162 main 116 95 _____P________ -1 -14.7454 45.8162 99 14 240
1944092S11057 1944 27 SI MM NOT_NAMED 1944-04-04 03:00:00 NR -15.0895 45.2152 main 99 74 _____P________ -1 -15.0895 45.2152 99 13 239
1944092S11057 1944 27 SI MM NOT_NAMED 1944-04-04 06:00:00 NR -15.4000 44.7000 reunion main 79 68 _____O________ -1 -15.4000 44.7000 99 9.90000 11 237
1944092S11057 1944 27 SI MM NOT_NAMED 1944-04-04 09:00:00 NR -15.6692 44.2870 main 68 59 _____P________ -1 -15.6692 44.2870 99 9 235
1944092S11057 1944 27 SI MM NOT_NAMED 1944-04-04 12:00:00 NR -15.9002 43.9689 main 61 61 _____P________ -1 -15.9002 43.9689 99 7 231
1944092S11057 1944 27 SI MM NOT_NAMED 1944-04-04 15:00:00 NR -16.0989 43.7324 main 78 75 _____P________ -1 -16.0989 43.7324 99 5 226
1944092S11057 1944 27 SI MM NOT_NAMED 1944-04-04 18:00:00 NR -16.2709 43.5639 main 85 85 _____P________ -1 -16.2709 43.5639 99 4 220
1944092S11057 1944 27 SI MM NOT_NAMED 1944-04-04 21:00:00 NR -16.4216 43.4501 main 96 96 _____P________ -1 -16.4216 43.4501 99 3 212
1944092S11057 1944 27 SI MM NOT_NAMED 1944-04-05 00:00:00 NR -16.5565 43.3773 main 100 100 _____P________ -1 -16.5565 43.3773 99 3 203
1944092S11057 1944 27 SI MM NOT_NAMED 1944-04-05 03:00:00 NR -16.6809 43.3318 main 101 96 _____P________ -1 -16.6809 43.3318 99 3 198
1944092S11057 1944 27 SI MM NOT_NAMED 1944-04-05 06:00:00 NR -16.8000 43.3000 reunion main 96 _____O________ -1 -16.8000 43.3000 99 9.90000 2 198

About IBTrACS Database

This database is a web-friendly format of International Best Track Archive for Climate Stewardship (IBTrACS), a global best track data archive curated by NOAA dating back to 1842.

Updated: 2021-11-26